James M Cox Dayton International Airport
KDAY : now visible

Airfield :











YOU CAN JOIN US ON...

 
LOGIN :

Register | Disclaimer

   EN    FR    IT 

 









Legend :    VFR   Marginal VFR   IFR   Intensive IFR   Very Intensive IFR
Visi :
Ceiling :
>= 8 km
>= 3000ft
5 to 8 km
1000 to 3000 ft
1500m to 5 km
500 to 1000 ft
800 to 1500m
200 to 500 ft
< 800m
< 200 ft
Symbols :   Thunderstorms  Fog  Heavy snow  Heavy precipitations  Wind > 20 kt






- Airport Elevation : 1009 ft
- IATA code : DAY


KDAY - James M Cox Dayton International

CURRENT METAR :
  • 130356Z 15008KT 10SM BKN250 00/M04 A3021 RMK AO2 SLP239 T00001044

EXPIRED METARs :
  • 130256Z 16008KT 10SM BKN250 01/M04 A3024 RMK AO2 SLP250 T00061044 58014
  • 130156Z 15008KT 10SM BKN250 01/M04 A3025 RMK AO2 SLP257 T00061044

TAF KDAY
Valid from the 13 at 03:00 until the 14 at 00:00 UTC


130301Z 1303/1324 15008KT P6SM BKN220
FM131300 18006KT P6SM OVC050
FM131800 17005KT P6SM OVC025
FM132200 16005KT 5SM BR OVC015



MET'MAP, your aeronautical weather chart ! - Copyright ORBIFLY December 2007 - Disclaimer

ORBIFLY MET'MAP TEAM :

Programming & Development : Alexandra Zaïnal
Concept & original design : Baudouin d'Aumeries
Assistance for programming : Marc-Olivier Méhu
Technical & hardware support : Manuel Goepfert

Contact : metmap@orbifly.com




SOURCES & CREDITS :

   NOAA       Earth
Advisory